Garden Spring, Nevada Weather observations

Data are for 10 minute period ending at time listed.
 Day   Time    Ave.   Ave.  Ave.  Vector   Max.   Stn.    Total    Solar   Ave.  
  of    of     Air    Rel.  Wind   Wind    Wind   Baro.  Precip.   Rad.    Soil  
Year   Day     Temp.  Hum.  Speed  Dir.    Gust   Pres.                    Temp. 
2026   (PST)    F      %     mph   deg.    mph     mb.     in.     W/m2     F    
--------------------------------------------------------------------------------- 
 128    6:20   77.8    14    2.2   338      5.6   852.2    0.00     298    68.5  
 128    6:30   79.1    13    2.9   356      5.9   852.3    0.00     335    68.5  
 128    6:40   79.4    13    3.8   325      7.5   852.4    0.00     371    68.4  
 128    6:50   78.9    13    4.3   326      7.5   852.4    0.00     407    67.8  
 128    7:00   80.0    12    3.8   337      6.8   852.4    0.00     444    67.6  
 128    7:10   80.3    12    4.4   328     11.0   852.5    0.00     481    67.4  
 128    7:20   80.8    12    2.7   344      8.0   852.4    0.00     518    67.3  
 128    7:30   80.2    12    3.9    56      8.7   852.4    0.00     554    67.1  
 128    7:40   81.8    12    4.1   352      8.9   852.5    0.00     589    67.1  
 128    7:50   81.1    12    5.9   326     11.4   852.5    0.00     621    67.1  
 128    8:00   80.5    12    6.0   310     10.3   852.4    0.00     654    67.0  
 128    8:10   80.3    12    6.1   276     10.3   852.4    0.00     686    66.9  
 128    8:20   80.6    12    5.7   284     11.1   852.5    0.00     717    66.9  
 128    8:30   82.8    11    3.8   311     11.9   852.6    0.00     747    67.1  
 128    8:40   81.9    11    6.2   313     11.0   852.6    0.00     775    67.2  
 128    8:50   82.0    10    4.3   330      9.2   852.6    0.00     805    67.2  
 128    9:00   83.0    10    5.5   338     12.9   852.6    0.00     836    67.4  
 128    9:10   83.2    10    5.5     9     13.3   852.6    0.00     862    67.4  
 128    9:20   84.2    10    4.4   347     11.1   852.5    0.00     885    67.6  
 128    9:30   83.9    10    5.4   292     13.8   852.6    0.00     905    67.9  
 128    9:40   83.8    10    5.9   295     12.1   852.6    0.00     927    68.2  
 128    9:50   83.4    10    7.0   321     18.2   852.6    0.00     948    68.4  
 128   10:00   82.6    10    6.5   288     16.8   852.5    0.00     965    68.5  
 128   10:10   83.1    10    9.7   286     22.4   852.5    0.00     980    68.8  
 128   10:20   83.3     9    8.9   297     16.8   852.5    0.00     994    69.1  
 128   10:30   83.3     9    8.0   295     17.1   852.4    0.00    1010    69.4  
 128   10:40   84.2     9    8.5   352     20.2   852.3    0.00    1024    69.7  
 128   10:50   84.5     9    8.1   279     19.2   852.2    0.00    1031    70.1  
 128   11:00   84.3     9    7.9   257     17.3   852.2    0.00    1043    70.4  
 128   11:10   84.1     9    8.3   290     15.3   852.0    0.00    1044    70.6  
 128   11:20   84.9     9    7.2   273     18.0   851.9    0.00    1046    70.9  
 128   11:30   84.5     9    9.6   267     22.5   851.8    0.00    1051    71.2  
 128   11:40   84.6     9    8.4   249     16.1   851.7    0.00    1053    71.5  
 128   11:50   85.5     8    7.4   271     15.1   851.7    0.00    1053    71.9  
 128   12:00   85.7     8    8.8   252     16.4   851.6    0.00    1051    72.2  
 128   12:10   85.5     8    8.0   261     16.3   851.5    0.00    1048    72.7  
 128   12:20   85.6     8    8.1   319     16.4   851.5    0.00    1042    73.2  
 128   12:30   85.6     8    6.1   280     14.2   851.4    0.00    1034    73.7  
 128   12:40   85.6     8    7.3   299     16.6   851.3    0.00    1024    74.1  
 128   12:50   86.3     8    5.8   235     13.8   851.2    0.00    1012    74.7  
 128   13:00   86.4     8    5.9   262     14.6   851.1    0.00     999    75.1  
 128   13:10   87.4     8    5.9   302     16.0   851.0    0.00     985    75.7  
 128   13:20   86.7     7    7.0   274     15.7   851.0    0.00     969    76.1  
 128   13:30   87.0     8    4.3   292      9.2   850.8    0.00     951    76.5  
 128   13:40   88.0     7    5.9   256     13.8   850.7    0.00     933    77.0  
 128   13:50   86.7     8    7.5   245     16.0   850.6    0.00     912    77.3  
 128   14:00   87.7     7    6.3   276     15.2   850.6    0.00     890    77.7  
 128   14:10   87.6     7    6.2   273     13.6   850.4    0.00     866    78.1  
 128   14:20   87.3     7    4.9   251     13.6   850.2    0.00     838    78.4  
 128   14:30   87.9     7    7.4   294     16.9   850.1    0.00     809    78.8  
 128   14:40   87.4     7    7.8   312     17.0   850.0    0.00     781    79.1  
 128   14:50   88.1     7    4.1   264     10.8   849.9    0.00     754    79.4  
 128   15:00   88.0     6    7.0   262     13.8   849.9    0.00     728    79.8  
 128   15:10   87.6     6    9.3   257     17.1   849.7    0.00     697    80.0  
 128   15:20   87.9     6    8.4   270     16.5   849.7    0.00     666    80.2  
 128   15:30   87.6     6    7.0   284     15.9   849.6    0.00     636    80.4  
 128   15:40   87.2     6    9.7   263     19.5   849.5    0.00     601    80.7  
 128   15:50   88.2     6    6.4   274     14.0   849.6    0.00     567    80.9  
 128   16:00   87.3     6    7.1   235     13.3   849.5    0.00     531    81.1  
 128   16:10   86.7     6    9.7   259     21.1   849.4    0.00     495    81.2  
 128   16:20   86.9     6    7.3   278     14.1   849.4    0.00     456    81.3  
 128   16:30   86.7     6    6.0   277     12.5   849.4    0.00     417    81.4  
 128   16:40   86.7     6    6.2   318     12.5   849.4    0.00     380    81.4  
 128   16:50   86.5     7    5.9   283     11.7   849.4    0.00     344    81.4  
 128   17:00   85.9     7    6.6   242     18.7   849.3    0.00     306    81.4  
 128   17:10   85.9     7    5.6   314     10.8   849.3    0.00     269    81.3  
 128   17:20   85.8     7    5.6   284     10.8   849.3    0.00     233    81.3  
 128   17:30   85.6     8    4.0   270      8.3   849.3    0.00     199    81.2  
 128   17:40   85.7     8    2.7   237     10.2   849.2    0.00     166    81.1  
 128   17:50   84.3     8    5.7   293     14.2   849.2    0.00     134    81.0  
 128   18:00   83.5     8    4.7   294     10.6   849.3    0.00      95    80.8  
 128   18:10   82.0     8    4.5   292      9.7   849.3    0.00      48    80.6  
 128   18:20   79.7     8    5.0   277      9.1   849.3    0.00      15    80.3  
 128   18:30   80.0     7    6.0   273     11.6   849.4    0.00      10    80.1  
 128   18:40   78.5     7    4.4   289      8.9   849.5    0.00       6    79.9  
 128   18:50   77.2     7    4.8   294      7.8   849.6    0.00       2    79.7  
 128   19:00   76.1     7    4.4   294      5.9   849.7    0.00       1    79.5  
 128   19:10   74.7     7    4.8   289      6.2   849.7    0.00       0    79.2  
 128   19:20   73.5     8    5.4   286      6.9   849.9    0.00       0    79.1  
 128   19:30   72.6     8    5.6   285      7.8   850.0    0.00       0    78.9  
 128   19:40   72.2     8    5.6   281      7.7   850.1    0.00       0    78.8  
 128   19:50   72.0     8    5.6   276      8.0   850.2    0.00       0    78.7  
 128   20:00   71.0     8    5.4   278      7.6   850.2    0.00       0    78.5  
 128   20:10   70.5     8    5.7   278      7.6   850.3    0.00       0    78.3  
 128   20:20   70.4     8    5.5   276      8.0   850.4    0.00       0    78.1  
 128   20:30   69.5     9    6.0   282      8.3   850.5    0.00       0    77.9  
 128   20:40   69.5     9    5.8   280      8.2   850.5    0.00       0    77.7  
 128   20:50   69.3     9    5.4   286      7.7   850.6    0.00       0    77.5  
 128   21:00   68.4    10    6.4   286      8.5   850.6    0.00       0    77.3  
 128   21:10   68.3    10    6.0   290      8.6   850.6    0.00       0    77.1  
 128   21:20   67.8    10    6.2   293      8.5   850.6    0.00       0    76.9  
 128   21:30   67.9    10    6.6   288      8.7   850.6    0.00       0    76.7  
 128   21:40   69.0    10    6.3   289      8.4   850.6    0.00       0    76.5  
 128   21:50   69.8     9    6.4   286      8.9   850.5    0.00       0    76.3  
 128   22:00   68.9    10    6.1   281      8.9   850.5    0.00       0    76.1  
 128   22:10   68.5    10    6.4   279      9.7   850.5    0.00       0    75.9  
 128   22:20   67.7    10    7.0   282     10.0   850.5    0.00       0    75.7  
 128   22:30   68.1    10    6.5   281      9.4   850.5    0.00       0    75.4  
 128   22:40   68.8    10    5.8   279      8.7   850.4    0.00       0    75.3  
 128   22:50   69.2     9    7.1   274     10.7   850.4    0.00       0    75.1  
 128   23:00   69.8     9    7.5   275     10.6   850.4    0.00       0    74.9  
 128   23:10   69.3     9    7.8   276     10.8   850.4    0.00       0    74.8  
 128   23:20   69.2     9    7.7   278     10.8   850.4    0.00       0    74.6  
 128   23:30   69.4     9    7.0   278     10.2   850.4    0.00       0    74.3  
 128   23:40   69.7     8    6.9   279      9.7   850.4    0.00       0    74.2  
 128   23:50   67.6     9    8.1   283     11.0   850.5    0.00       0    73.9  
 129    0:00   68.2     8    7.7   281     11.1   850.5    0.00       0    73.7  
 129    0:10   68.4     8    7.4   275     10.3   850.5    0.00       0    73.5  
 129    0:20   68.3     8    8.3   276     12.1   850.5    0.00       0    73.4  
 129    0:30   67.9     9    8.8   278     13.0   850.5    0.00       0    73.2  
 129    0:40   66.9     9    7.7   280     11.2   850.4    0.00       0    73.0  
 129    0:50   67.4     9    7.3   275     10.6   850.3    0.00       0    72.8  
 129    1:00   68.5     9    7.7   276     11.7   850.3    0.00       0    72.7  
 129    1:10   69.1     8    7.2   277     11.1   850.4    0.00       0    72.6  
 129    1:20   69.1     8    7.1   276     10.2   850.4    0.00       0    72.4  
 129    1:30   68.8     9    6.7   276     10.3   850.4    0.00       0    72.3  
 129    1:40   68.6     9    6.9   275     11.1   850.5    0.00       0    72.1  
 129    1:50   67.6     9    7.9   283     12.4   850.5    0.00       0    71.9  
 129    2:00   67.1     9    7.3   276     10.3   850.5    0.00       0    71.7  
 129    2:10   67.4    10    6.8   270      9.6   850.5    0.00       0    71.5  
 129    2:20   67.1    10    5.7   278      8.9   850.6    0.00       0    71.4  
 129    2:30   67.8    12    3.0   346      6.0   850.7    0.00       0    71.2  
 129    2:40   66.7    12    2.9   179      6.5   850.8    0.00       0    71.0  
 129    2:50   65.8    13    4.4   163      7.1   850.8    0.00       0    70.8  
 129    3:00   67.7    14    5.0   206      8.2   850.8    0.00       0    70.7  
 129    3:10   69.6    14    3.1   243      7.2   850.9    0.00       0    70.7  
 129    3:20   69.5    14    3.6   205      6.7   850.8    0.00       0    70.6  
 129    3:30   68.4    15    4.3   238      6.2   850.8    0.00       0    70.5  
 129    3:40   68.4    15    4.7   237      7.3   850.8    0.00       0    70.4  
 129    3:50   69.4    15    4.7   317      8.6   850.8    0.00       0    70.3  
 129    4:00   69.4    15    4.8   335      9.1   850.9    0.00       0    70.2  
 129    4:10   69.2    15    2.1   331      4.5   851.0    0.00       0    70.0  
 129    4:20   67.7    16    2.8   320      4.7   851.0    0.00       0    69.7  
 129    4:30   65.9    18    3.7   281      5.7   851.1    0.00       2    69.5  
 129    4:40   64.4    19    5.0   261      8.0   851.2    0.00       5    69.4  
 129    4:50   63.8    20    6.0   260      8.1   851.3    0.00      13    69.3  
 129    5:00   63.1    20    5.3   272      7.5   851.5    0.00      30    69.2  
 129    5:10   63.0    21    5.2   268      7.2   851.6    0.00      56    69.2  
 129    5:20   64.8    21    4.6   282      6.5   851.7    0.00      90    69.2  
 129    5:30   68.8    17    4.0   273      7.6   851.7    0.00     126    69.6  
 129    5:40   72.2    15    2.6   306      5.5   851.9    0.00     158    70.1  
 129    5:50   73.5    15    3.5   327      6.8   852.0    0.00     192    70.2  
 129    6:00   76.0    13    6.5    21     15.0   852.0    0.00     227    70.5  
 129    6:10   77.3    13    6.2    28     10.7   852.1    0.00     263    70.7  

Return to Garden Spring, Nevada graphs page.


Western Regional Climate Center,wrcc@dri.edu